createdAt,value
2023-09-19T00:00:58.388Z,59.20
2023-09-19T00:03:29.335Z,59.30
2023-09-19T00:05:59.300Z,59.30
2023-09-19T00:08:26.033Z,59.60
2023-09-19T00:10:54.570Z,59.60
2023-09-19T00:13:25.805Z,59.70
2023-09-19T00:15:52.655Z,59.90
2023-09-19T00:18:25.820Z,59.80
2023-09-19T00:20:55.427Z,59.80
2023-09-19T00:23:22.145Z,59.80
2023-09-19T00:25:49.749Z,59.90
2023-09-19T00:28:22.270Z,60.00
2023-09-19T00:30:51.168Z,60.30
2023-09-19T00:33:19.998Z,60.10
2023-09-19T00:35:54.070Z,60.10
2023-09-19T00:38:27.684Z,60.30
2023-09-19T00:41:00.067Z,60.20
2023-09-19T00:43:30.370Z,60.30
2023-09-19T00:46:01.954Z,60.30
2023-09-19T00:48:30.823Z,60.40
2023-09-19T00:51:05.839Z,60.40
2023-09-19T00:53:35.308Z,60.70
2023-09-19T00:56:08.811Z,60.70
2023-09-19T00:58:38.236Z,60.80
2023-09-19T01:01:09.524Z,60.80
2023-09-19T01:03:37.770Z,60.90
2023-09-19T01:06:04.738Z,60.90
2023-09-19T01:08:33.667Z,61.00
2023-09-19T01:11:21.222Z,61.10
2023-09-19T01:13:54.706Z,61.60
2023-09-19T01:16:55.338Z,61.40
2023-09-19T01:19:44.874Z,61.90
2023-09-19T01:22:22.506Z,61.60
2023-09-19T01:25:27.799Z,61.70
2023-09-19T01:28:16.085Z,61.90
2023-09-19T01:30:52.331Z,61.90
2023-09-19T01:33:22.585Z,61.50
2023-09-19T01:35:53.988Z,61.60
2023-09-19T01:38:21.383Z,61.70
2023-09-19T01:41:04.852Z,61.80
2023-09-19T01:43:41.590Z,62.00
2023-09-19T01:46:22.877Z,62.10
2023-09-19T01:49:36.500Z,62.20
2023-09-19T01:52:14.707Z,62.20
2023-09-19T01:54:56.682Z,61.70
2023-09-19T01:58:05.605Z,61.70
2023-09-19T02:00:37.682Z,61.80
2023-09-19T02:03:07.532Z,61.40
2023-09-19T02:05:34.371Z,61.40
2023-09-19T02:08:06.404Z,61.50
2023-09-19T02:10:38.246Z,61.50
2023-09-19T02:13:10.213Z,61.40
2023-09-19T02:15:39.061Z,61.40
2023-09-19T02:18:06.709Z,61.40
2023-09-19T02:20:34.315Z,61.40
2023-09-19T02:23:01.031Z,61.60
2023-09-19T02:25:42.515Z,61.70
2023-09-19T02:28:11.222Z,61.60
2023-09-19T02:30:40.107Z,61.60
2023-09-19T02:33:06.910Z,61.70
2023-09-19T02:35:37.322Z,61.70
2023-09-19T02:38:07.776Z,61.80
2023-09-19T02:40:37.821Z,61.70
2023-09-19T02:43:05.865Z,61.70
2023-09-19T02:45:34.264Z,61.70
2023-09-19T02:48:11.227Z,61.70
2023-09-19T02:50:38.231Z,61.80
2023-09-19T02:53:05.700Z,61.80
2023-09-19T02:55:32.851Z,61.80
2023-09-19T02:58:01.167Z,61.80
2023-09-19T03:00:37.554Z,61.80
2023-09-19T03:03:07.585Z,61.90
2023-09-19T03:05:39.183Z,61.90
2023-09-19T03:08:09.012Z,61.70
2023-09-19T03:10:43.347Z,61.60
2023-09-19T03:13:10.760Z,61.60
2023-09-19T03:15:45.470Z,61.80
2023-09-19T03:18:15.008Z,62.10
2023-09-19T03:20:45.603Z,62.00
2023-09-19T03:23:14.244Z,62.00
2023-09-19T03:25:44.049Z,62.10
2023-09-19T03:28:10.915Z,62.20
2023-09-19T03:30:39.926Z,62.20
2023-09-19T03:33:08.340Z,62.20
2023-09-19T03:35:40.783Z,62.20
2023-09-19T03:38:10.150Z,62.20
2023-09-19T03:40:39.173Z,62.20
2023-09-19T03:43:08.238Z,62.10
2023-09-19T03:45:34.924Z,62.20
2023-09-19T03:48:15.941Z,62.10
2023-09-19T03:50:45.584Z,62.60
2023-09-19T03:53:14.656Z,62.20
2023-09-19T03:55:41.354Z,62.30
2023-09-19T03:58:16.546Z,62.30
2023-09-19T04:00:43.272Z,62.50
2023-09-19T04:03:21.322Z,62.40
2023-09-19T04:05:51.250Z,62.40
2023-09-19T04:08:17.867Z,62.40
2023-09-19T04:10:45.049Z,62.30
2023-09-19T04:13:13.240Z,62.40
2023-09-19T04:15:41.344Z,62.50
2023-09-19T04:18:11.821Z,62.70
2023-09-19T04:20:38.736Z,62.60
2023-09-19T04:23:12.149Z,62.70
2023-09-19T04:25:42.035Z,62.80
2023-09-19T04:28:09.013Z,62.90
2023-09-19T04:30:35.660Z,62.80
2023-09-19T04:33:07.854Z,62.70
2023-09-19T04:35:35.917Z,62.60
2023-09-19T04:38:07.256Z,62.70
2023-09-19T04:40:38.697Z,62.40
2023-09-19T04:43:05.347Z,62.20
2023-09-19T04:45:32.012Z,62.20
2023-09-19T04:47:59.914Z,62.00
2023-09-19T04:50:29.849Z,62.00
2023-09-19T04:52:59.053Z,61.90
2023-09-19T04:55:25.693Z,61.70
2023-09-19T04:57:53.820Z,61.80
2023-09-19T05:00:27.507Z,61.70
2023-09-19T05:02:57.572Z,62.20
2023-09-19T05:05:29.146Z,61.60
2023-09-19T05:07:56.735Z,61.40
2023-09-19T05:10:23.630Z,61.30
2023-09-19T05:12:57.723Z,61.50
2023-09-19T05:15:26.957Z,61.40
2023-09-19T05:17:58.001Z,61.40
2023-09-19T05:20:32.806Z,61.20
2023-09-19T05:23:15.728Z,61.20
2023-09-19T05:25:51.077Z,61.20
2023-09-19T05:28:17.757Z,61.10
2023-09-19T05:30:46.296Z,61.20
2023-09-19T05:33:16.603Z,61.20
2023-09-19T05:35:46.168Z,61.00
2023-09-19T05:38:13.963Z,61.00
2023-09-19T05:40:45.262Z,61.10
2023-09-19T05:43:17.365Z,61.10
2023-09-19T05:45:44.048Z,61.20
2023-09-19T05:48:14.018Z,61.10
2023-09-19T05:50:41.038Z,61.10
2023-09-19T05:53:07.723Z,61.10
2023-09-19T05:55:39.730Z,61.10
2023-09-19T05:58:06.457Z,61.30
2023-09-19T06:00:33.121Z,61.20
2023-09-19T06:03:01.016Z,61.30
2023-09-19T06:05:28.974Z,61.30
2023-09-19T06:07:56.841Z,61.30
2023-09-19T06:10:26.290Z,61.40
2023-09-19T06:12:55.979Z,61.60
2023-09-19T06:15:25.861Z,61.50
2023-09-19T06:17:56.726Z,61.50
2023-09-19T06:20:27.225Z,61.50
2023-09-19T06:22:54.810Z,61.60
2023-09-19T06:25:22.999Z,61.70
2023-09-19T06:27:54.614Z,61.70
2023-09-19T06:30:22.563Z,61.80
2023-09-19T06:32:49.344Z,61.80
2023-09-19T06:35:17.064Z,61.80
2023-09-19T06:37:45.900Z,61.80
2023-09-19T06:40:17.453Z,61.80
2023-09-19T06:42:50.883Z,61.80
2023-09-19T06:45:20.150Z,61.90
2023-09-19T06:47:51.232Z,61.80
2023-09-19T06:50:24.630Z,61.70
2023-09-19T06:52:53.001Z,61.80
2023-09-19T06:55:21.365Z,61.90
2023-09-19T06:57:49.209Z,61.90
2023-09-19T07:00:21.927Z,61.80
2023-09-19T07:03:14.849Z,61.90
2023-09-19T07:05:45.069Z,62.10
2023-09-19T07:08:14.613Z,61.80
2023-09-19T07:10:44.454Z,61.80
2023-09-19T07:13:11.820Z,62.00
2023-09-19T07:15:47.794Z,61.90
2023-09-19T07:18:19.824Z,62.00
2023-09-19T07:20:50.471Z,61.80
2023-09-19T07:23:24.755Z,61.80
2023-09-19T07:25:52.533Z,62.00
2023-09-19T07:28:23.017Z,61.70
2023-09-19T07:30:53.848Z,61.70
2023-09-19T07:33:22.971Z,61.60
2023-09-19T07:35:49.676Z,61.40
2023-09-19T07:38:16.379Z,61.40
2023-09-19T07:40:45.246Z,61.30
2023-09-19T07:43:11.906Z,61.50
2023-09-19T07:45:41.810Z,61.40
2023-09-19T07:48:18.888Z,61.60
2023-09-19T07:50:45.766Z,61.40
2023-09-19T07:53:14.515Z,61.20
2023-09-19T07:55:44.691Z,61.20
2023-09-19T07:58:11.292Z,61.20
2023-09-19T08:00:37.962Z,61.20
2023-09-19T08:03:13.099Z,61.20
2023-09-19T08:05:46.078Z,61.40
2023-09-19T08:08:15.540Z,61.10
2023-09-19T08:10:47.630Z,61.00
2023-09-19T08:13:15.782Z,61.10
2023-09-19T08:15:50.923Z,60.90
2023-09-19T08:18:20.445Z,60.50
2023-09-19T08:20:52.040Z,60.30
2023-09-19T08:23:22.224Z,60.20
2023-09-19T08:25:49.120Z,60.30
2023-09-19T08:28:26.511Z,60.20
2023-09-19T08:30:55.865Z,60.30
2023-09-19T08:33:23.569Z,60.20
2023-09-19T08:35:52.812Z,60.00
2023-09-19T08:38:20.476Z,60.00
2023-09-19T08:40:52.438Z,60.00
2023-09-19T08:43:22.815Z,59.80
2023-09-19T08:46:01.043Z,59.80
2023-09-19T08:48:29.570Z,59.90
2023-09-19T08:51:02.780Z,60.10
2023-09-19T08:53:39.141Z,60.20
2023-09-19T08:56:09.468Z,59.70
2023-09-19T08:58:45.544Z,59.70
2023-09-19T09:01:17.809Z,59.50
2023-09-19T09:03:53.808Z,59.80
2023-09-19T09:06:24.637Z,59.80
2023-09-19T09:08:55.377Z,59.90
2023-09-19T09:11:25.709Z,59.40
2023-09-19T09:13:59.314Z,59.50
2023-09-19T09:16:41.295Z,59.50
2023-09-19T09:19:12.129Z,58.90
2023-09-19T09:21:39.855Z,59.20
2023-09-19T09:24:30.375Z,58.70
2023-09-19T09:26:58.430Z,58.10
2023-09-19T09:29:53.238Z,58.10
2023-09-19T09:32:38.842Z,58.10
2023-09-19T09:35:12.270Z,57.80
2023-09-19T09:37:39.682Z,57.80
2023-09-19T09:40:20.602Z,57.70
2023-09-19T09:42:53.389Z,57.80
2023-09-19T09:45:39.332Z,57.70
2023-09-19T09:48:16.158Z,57.70
2023-09-19T09:50:50.032Z,57.90
2023-09-19T09:53:29.682Z,57.60
2023-09-19T09:56:01.789Z,57.50
2023-09-19T09:58:34.133Z,57.20
2023-09-19T10:01:03.739Z,57.20
2023-09-19T10:03:45.624Z,56.90
2023-09-19T10:06:28.939Z,56.50
2023-09-19T10:09:12.863Z,56.90
2023-09-19T10:11:45.823Z,56.90
2023-09-19T10:14:14.287Z,57.00
2023-09-19T10:16:50.263Z,57.00
2023-09-19T10:19:32.442Z,57.30
2023-09-19T10:22:03.228Z,56.20
2023-09-19T10:24:32.124Z,56.40
2023-09-19T10:27:00.461Z,56.20
2023-09-19T10:29:33.076Z,56.30
2023-09-19T10:32:01.084Z,55.60
2023-09-19T10:34:31.722Z,55.80
2023-09-19T10:36:58.901Z,55.60
2023-09-19T10:39:26.369Z,55.50
2023-09-19T10:41:57.520Z,55.20
2023-09-19T10:44:27.361Z,55.00
2023-09-19T10:46:55.048Z,54.70
2023-09-19T10:49:25.630Z,55.00
2023-09-19T10:51:59.885Z,54.30
2023-09-19T10:54:33.300Z,54.00
2023-09-19T10:57:06.398Z,54.40
2023-09-19T10:59:35.863Z,54.20
2023-09-19T11:02:32.242Z,54.20
2023-09-19T11:05:15.241Z,53.70
2023-09-19T11:08:05.999Z,54.20
2023-09-19T11:10:49.688Z,54.50
2023-09-19T11:13:32.256Z,53.20
2023-09-19T11:15:59.305Z,53.00
2023-09-19T11:18:47.380Z,53.60
2023-09-19T11:21:35.498Z,53.20
2023-09-19T11:24:11.560Z,52.30
2023-09-19T11:26:48.440Z,52.30
2023-09-19T11:29:27.949Z,52.70
2023-09-19T11:31:56.842Z,52.50
2023-09-19T11:34:39.567Z,52.70
2023-09-19T11:37:34.007Z,53.20
2023-09-19T11:40:10.392Z,52.80
2023-09-19T11:42:55.084Z,52.10
2023-09-19T11:45:54.449Z,51.70
2023-09-19T11:48:21.258Z,51.70
2023-09-19T11:50:52.390Z,51.40
2023-09-19T11:53:20.876Z,51.10
2023-09-19T11:55:48.126Z,51.10
2023-09-19T11:58:19.497Z,51.20
2023-09-19T12:00:46.786Z,51.00
2023-09-19T12:03:15.654Z,51.00
2023-09-19T12:05:42.693Z,51.20
2023-09-19T12:08:22.372Z,51.30
2023-09-19T12:10:56.180Z,51.50
2023-09-19T12:13:25.264Z,50.60
2023-09-19T12:15:56.565Z,50.30
2023-09-19T12:18:30.780Z,50.10
2023-09-19T12:21:17.891Z,50.30
2023-09-19T12:23:50.173Z,49.90
2023-09-19T12:26:16.721Z,49.60
2023-09-19T12:28:47.911Z,50.50
2023-09-19T12:31:21.871Z,49.70
2023-09-19T12:33:54.986Z,49.20
2023-09-19T12:36:37.936Z,49.10
2023-09-19T12:39:10.237Z,49.40
2023-09-19T12:41:41.855Z,49.30
2023-09-19T12:44:12.525Z,48.90
2023-09-19T12:46:40.950Z,49.10
2023-09-19T12:49:22.717Z,48.20
2023-09-19T12:51:50.554Z,48.10
2023-09-19T12:54:18.006Z,48.30
2023-09-19T12:56:48.826Z,48.40
2023-09-19T12:59:16.408Z,48.30
2023-09-19T13:02:08.457Z,47.80
2023-09-19T13:04:41.138Z,47.80
2023-09-19T13:07:31.623Z,47.80
2023-09-19T13:10:10.822Z,47.90
2023-09-19T13:12:39.793Z,47.10
2023-09-19T13:15:32.457Z,47.30
2023-09-19T13:18:04.735Z,47.30
2023-09-19T13:20:35.312Z,48.30
2023-09-19T13:23:09.565Z,47.90
2023-09-19T13:25:41.110Z,47.40
2023-09-19T13:28:07.753Z,47.60
2023-09-19T13:30:48.338Z,48.20
2023-09-19T13:33:21.883Z,48.30
2023-09-19T13:35:49.277Z,48.70
2023-09-19T13:38:19.693Z,48.50
2023-09-19T13:40:48.850Z,48.50
2023-09-19T13:43:18.456Z,48.30
2023-09-19T13:45:51.174Z,48.20
2023-09-19T13:48:21.323Z,47.90
2023-09-19T13:50:48.820Z,48.10
2023-09-19T13:53:15.553Z,48.50
2023-09-19T13:55:44.195Z,48.60
2023-09-19T13:58:13.666Z,48.30
2023-09-19T14:00:43.022Z,48.50
2023-09-19T14:03:11.974Z,47.90
2023-09-19T14:05:40.429Z,47.80
2023-09-19T14:08:14.584Z,47.10
2023-09-19T14:10:46.476Z,47.20
2023-09-19T14:13:18.152Z,47.10
2023-09-19T14:15:44.833Z,46.90
2023-09-19T14:18:11.581Z,47.10
2023-09-19T14:20:40.929Z,47.10
2023-09-19T14:23:07.624Z,47.30
2023-09-19T14:25:38.807Z,47.60
2023-09-19T14:28:08.895Z,47.40
2023-09-19T14:30:39.170Z,47.70
2023-09-19T14:33:06.868Z,47.70
2023-09-19T14:35:41.231Z,47.70
2023-09-19T14:38:09.098Z,47.60
2023-09-19T14:40:37.340Z,47.70
2023-09-19T14:43:04.348Z,47.70
2023-09-19T14:45:33.139Z,47.50
2023-09-19T14:48:01.074Z,47.60
2023-09-19T14:50:32.200Z,47.60
2023-09-19T14:53:04.917Z,47.80
2023-09-19T14:55:36.207Z,47.90
2023-09-19T14:58:03.784Z,47.60
2023-09-19T15:00:33.757Z,48.20
2023-09-19T15:03:00.570Z,48.50
2023-09-19T15:05:32.785Z,48.50
2023-09-19T15:07:59.506Z,48.40
2023-09-19T15:10:26.428Z,48.80
2023-09-19T15:12:53.047Z,48.90
2023-09-19T15:15:24.510Z,48.90
2023-09-19T15:17:51.362Z,49.00
2023-09-19T15:20:18.790Z,49.30
2023-09-19T15:22:47.760Z,49.20
2023-09-19T15:25:16.843Z,49.10
2023-09-19T15:27:46.362Z,49.40
2023-09-19T15:30:16.172Z,49.60
2023-09-19T15:32:43.356Z,49.60
2023-09-19T15:35:26.303Z,49.40
2023-09-19T15:37:57.504Z,49.20
2023-09-19T15:40:27.240Z,49.20
2023-09-19T15:42:58.179Z,49.20
2023-09-19T15:45:26.692Z,49.10
2023-09-19T15:47:54.042Z,48.20
2023-09-19T15:50:20.789Z,46.90
2023-09-19T15:52:49.595Z,45.80
2023-09-19T15:55:16.301Z,45.60
2023-09-19T15:57:42.922Z,44.90
2023-09-19T16:00:11.266Z,44.90
2023-09-19T16:02:38.383Z,44.80
2023-09-19T16:05:10.457Z,44.70
2023-09-19T16:07:37.270Z,44.90
2023-09-19T16:10:04.320Z,44.80
2023-09-19T16:12:31.209Z,45.20
2023-09-19T16:14:57.824Z,45.30
2023-09-19T16:17:24.597Z,45.30
2023-09-19T16:19:51.287Z,45.70
2023-09-19T16:22:17.896Z,45.80
2023-09-19T16:24:45.081Z,46.00
2023-09-19T16:27:11.705Z,46.40
2023-09-19T16:29:38.366Z,46.50
2023-09-19T16:32:05.204Z,46.50
2023-09-19T16:34:32.720Z,46.50
2023-09-19T16:37:03.433Z,46.80
2023-09-19T16:39:30.512Z,47.00
2023-09-19T16:41:57.135Z,47.00
2023-09-19T16:44:25.311Z,47.20
2023-09-19T16:46:51.979Z,47.40
2023-09-19T16:49:18.729Z,47.50
2023-09-19T16:51:46.264Z,47.80
2023-09-19T16:54:12.912Z,48.10
2023-09-19T16:56:41.765Z,48.40
2023-09-19T16:59:11.630Z,48.60
2023-09-19T17:01:40.308Z,48.70
2023-09-19T17:04:12.130Z,48.70
2023-09-19T17:06:39.604Z,48.70
2023-09-19T17:09:08.105Z,49.00
2023-09-19T17:11:35.111Z,49.10
2023-09-19T17:14:05.236Z,49.40
2023-09-19T17:16:35.552Z,49.50
2023-09-19T17:19:02.216Z,49.40
2023-09-19T17:21:29.066Z,49.70
2023-09-19T17:24:00.792Z,49.70
2023-09-19T17:26:27.674Z,49.90
2023-09-19T17:28:54.766Z,49.90
2023-09-19T17:31:23.564Z,49.90
2023-09-19T17:33:52.551Z,50.00
2023-09-19T17:36:22.355Z,50.10
2023-09-19T17:38:54.438Z,50.10
2023-09-19T17:41:24.094Z,50.30
2023-09-19T17:44:00.367Z,50.40
2023-09-19T17:46:30.166Z,50.40
2023-09-19T17:49:01.478Z,50.40
2023-09-19T17:51:28.770Z,50.50
2023-09-19T17:54:01.293Z,50.60
2023-09-19T17:56:29.011Z,50.80
2023-09-19T17:58:59.969Z,50.90
2023-09-19T18:01:33.101Z,50.90
2023-09-19T18:04:03.205Z,50.90
2023-09-19T18:06:32.614Z,50.90
2023-09-19T18:09:00.683Z,50.90
2023-09-19T18:11:32.065Z,51.20
2023-09-19T18:14:01.672Z,51.10
2023-09-19T18:16:29.221Z,51.20
2023-09-19T18:18:57.188Z,51.30
2023-09-19T18:21:24.418Z,51.50
2023-09-19T18:24:07.627Z,51.20
2023-09-19T18:26:34.754Z,51.40
2023-09-19T18:29:01.525Z,51.90
2023-09-19T18:31:29.836Z,51.90
2023-09-19T18:33:59.465Z,51.40
2023-09-19T18:36:34.302Z,51.40
2023-09-19T18:39:05.294Z,51.40
2023-09-19T18:41:34.386Z,51.50
2023-09-19T18:44:02.383Z,51.50
2023-09-19T18:46:35.917Z,51.70
2023-09-19T18:49:02.737Z,51.80
2023-09-19T18:51:29.414Z,51.80
2023-09-19T18:54:11.851Z,51.90
2023-09-19T18:56:42.393Z,51.80
2023-09-19T18:59:11.474Z,51.90
2023-09-19T19:01:41.912Z,51.70
2023-09-19T19:04:14.130Z,51.90
2023-09-19T19:06:41.878Z,52.00
2023-09-19T19:09:12.489Z,51.90
2023-09-19T19:11:43.735Z,52.10
2023-09-19T19:14:11.263Z,52.10
2023-09-19T19:16:38.610Z,52.20
2023-09-19T19:19:07.727Z,52.30
2023-09-19T19:21:37.869Z,52.20
2023-09-19T19:24:07.926Z,52.20
2023-09-19T19:26:35.980Z,52.30
2023-09-19T19:29:02.832Z,52.40
2023-09-19T19:31:34.700Z,52.40
2023-09-19T19:34:06.379Z,52.50
2023-09-19T19:36:34.669Z,52.50
2023-09-19T19:39:01.307Z,52.50
2023-09-19T19:41:28.032Z,52.60
2023-09-19T19:43:55.131Z,52.70
2023-09-19T19:46:25.919Z,52.80
2023-09-19T19:48:52.932Z,53.00
2023-09-19T19:51:21.156Z,53.10
2023-09-19T19:53:49.360Z,53.10
2023-09-19T19:56:18.412Z,53.10
2023-09-19T19:58:50.275Z,53.30
2023-09-19T20:01:18.848Z,53.30
2023-09-19T20:03:46.300Z,53.40
2023-09-19T20:06:15.057Z,53.40
2023-09-19T20:08:44.613Z,53.50
2023-09-19T20:11:14.867Z,53.60
2023-09-19T20:13:44.129Z,53.60
2023-09-19T20:16:11.139Z,54.30
2023-09-19T20:18:41.212Z,53.80
2023-09-19T20:21:14.156Z,53.90
2023-09-19T20:23:44.091Z,53.80
2023-09-19T20:26:11.638Z,53.90
2023-09-19T20:28:44.625Z,54.00
2023-09-19T20:31:15.664Z,54.00
2023-09-19T20:33:52.646Z,54.00
2023-09-19T20:36:21.936Z,54.10
2023-09-19T20:38:51.940Z,54.10
2023-09-19T20:41:18.984Z,54.00
2023-09-19T20:43:45.699Z,54.00
2023-09-19T20:46:13.096Z,54.10
2023-09-19T20:48:41.022Z,54.10
2023-09-19T20:51:10.351Z,54.40
2023-09-19T20:53:47.245Z,54.20
2023-09-19T20:56:16.697Z,54.20
2023-09-19T20:58:51.193Z,54.20
2023-09-19T21:01:20.923Z,54.20
2023-09-19T21:03:47.862Z,54.20
2023-09-19T21:06:18.454Z,54.40
2023-09-19T21:08:47.888Z,54.40
2023-09-19T21:11:21.660Z,54.40
2023-09-19T21:13:50.975Z,54.50
2023-09-19T21:16:23.359Z,54.60
2023-09-19T21:18:50.540Z,54.80
2023-09-19T21:21:18.878Z,54.80
2023-09-19T21:23:55.504Z,54.80
2023-09-19T21:26:24.577Z,54.90
2023-09-19T21:28:51.362Z,54.90
2023-09-19T21:31:18.428Z,55.10
2023-09-19T21:33:52.695Z,55.20
2023-09-19T21:36:27.708Z,55.30
2023-09-19T21:39:00.401Z,55.30
2023-09-19T21:41:30.002Z,55.30
2023-09-19T21:43:58.342Z,55.40
2023-09-19T21:46:28.247Z,55.40
2023-09-19T21:49:04.613Z,55.50
2023-09-19T21:51:32.627Z,55.50
2023-09-19T21:54:02.910Z,55.70
2023-09-19T21:56:30.192Z,55.60
2023-09-19T21:58:58.082Z,55.80
2023-09-19T22:01:27.476Z,55.80
2023-09-19T22:03:54.557Z,55.80
2023-09-19T22:06:21.914Z,55.90
2023-09-19T22:08:54.628Z,56.10
2023-09-19T22:11:22.153Z,56.20
2023-09-19T22:13:49.538Z,56.00
2023-09-19T22:16:26.248Z,56.10
2023-09-19T22:18:54.025Z,56.10
2023-09-19T22:21:33.069Z,56.20
2023-09-19T22:24:00.226Z,56.30
2023-09-19T22:26:27.096Z,56.20
2023-09-19T22:28:57.985Z,56.30
2023-09-19T22:31:39.380Z,56.40
2023-09-19T22:34:10.697Z,56.40
2023-09-19T22:36:48.977Z,56.40
2023-09-19T22:39:25.813Z,56.40
2023-09-19T22:41:54.475Z,56.40
2023-09-19T22:44:24.215Z,56.40
2023-09-19T22:46:50.981Z,56.40
2023-09-19T22:49:23.393Z,56.40
2023-09-19T22:51:56.525Z,56.30
2023-09-19T22:54:27.121Z,56.30
2023-09-19T22:56:57.337Z,56.30
2023-09-19T22:59:26.697Z,56.30
2023-09-19T23:01:54.988Z,56.30
2023-09-19T23:04:25.160Z,56.30
2023-09-19T23:06:53.691Z,56.50
2023-09-19T23:09:24.393Z,56.50
2023-09-19T23:12:07.725Z,56.60
2023-09-19T23:14:39.273Z,56.70
2023-09-19T23:17:14.209Z,56.70
2023-09-19T23:19:51.368Z,56.60
2023-09-19T23:22:18.117Z,56.70
2023-09-19T23:24:51.059Z,56.80
2023-09-19T23:27:26.093Z,57.00
2023-09-19T23:29:55.581Z,56.90
2023-09-19T23:32:22.694Z,56.90
2023-09-19T23:34:50.017Z,57.00
2023-09-19T23:37:22.504Z,57.20
2023-09-19T23:39:51.751Z,57.30
2023-09-19T23:42:20.019Z,57.30
2023-09-19T23:44:49.631Z,57.40
2023-09-19T23:47:19.562Z,57.50
2023-09-19T23:49:49.654Z,57.60
2023-09-19T23:52:18.387Z,57.80
2023-09-19T23:54:51.697Z,57.80
2023-09-19T23:57:19.077Z,58.00
2023-09-19T23:59:48.099Z,58.00
